createdAt,value
2017-09-25T00:00:20.198Z,15.09
2017-09-25T00:02:48.536Z,15.12
2017-09-25T00:05:16.837Z,15.16
2017-09-25T00:07:45.161Z,15.11
2017-09-25T00:10:14.232Z,15.13
2017-09-25T00:12:42.556Z,15.11
2017-09-25T00:15:10.862Z,15.16
2017-09-25T00:17:39.204Z,15.16
2017-09-25T00:20:08.277Z,15.14
2017-09-25T00:22:37.376Z,15.15
2017-09-25T00:25:06.509Z,15.18
2017-09-25T00:27:34.817Z,15.18
2017-09-25T00:30:03.142Z,15.18
2017-09-25T00:32:32.231Z,15.17
2017-09-25T00:35:00.585Z,15.17
2017-09-25T00:37:28.888Z,15.19
2017-09-25T00:39:57.957Z,15.12
2017-09-25T00:42:26.276Z,15.15
2017-09-25T00:44:54.585Z,15.10
2017-09-25T00:47:22.913Z,15.17
2017-09-25T00:49:51.999Z,15.17
2017-09-25T00:55:51.536Z,15.14
2017-09-25T00:58:20.622Z,15.16
2017-09-25T01:01:07.578Z,15.09
2017-09-25T01:03:53.705Z,15.09
2017-09-25T01:06:27.380Z,15.08
2017-09-25T01:08:55.704Z,15.14
2017-09-25T01:11:24.017Z,15.16
2017-09-25T01:13:52.325Z,15.17
2017-09-25T01:16:20.650Z,15.16
2017-09-25T01:18:49.735Z,15.24
2017-09-25T01:21:18.046Z,15.19
2017-09-25T01:23:46.369Z,15.15
2017-09-25T01:26:14.682Z,15.24
2017-09-25T01:28:43.773Z,15.21
2017-09-25T01:31:12.856Z,15.20
2017-09-25T01:33:41.175Z,15.24
2017-09-25T01:36:09.477Z,15.30
2017-09-25T01:38:37.800Z,15.19
2017-09-25T01:41:06.893Z,15.19
2017-09-25T01:43:35.979Z,15.17
2017-09-25T01:46:04.297Z,15.08
2017-09-25T01:48:32.620Z,15.12
2017-09-25T01:51:00.936Z,15.10
2017-09-25T01:53:29.334Z,15.01
2017-09-25T01:55:57.653Z,14.98
2017-09-25T01:58:25.977Z,15.00
2017-09-25T02:00:54.293Z,14.99
2017-09-25T02:03:22.625Z,14.99
2017-09-25T02:05:50.928Z,15.05
2017-09-25T02:08:19.237Z,15.12
2017-09-25T02:10:47.553Z,15.13
2017-09-25T02:13:16.628Z,15.13
2017-09-25T02:15:44.948Z,15.11
2017-09-25T02:18:13.260Z,15.15
2017-09-25T02:20:41.580Z,15.06
2017-09-25T02:23:10.660Z,15.12
2017-09-25T02:25:39.740Z,15.06
2017-09-25T02:28:08.093Z,15.09
2017-09-25T02:30:36.409Z,15.09
2017-09-25T02:33:05.500Z,15.15
2017-09-25T02:35:33.832Z,15.11
2017-09-25T02:38:02.143Z,15.10
2017-09-25T02:40:30.497Z,15.10
2017-09-25T02:42:58.807Z,15.12
2017-09-25T02:45:27.134Z,15.15
2017-09-25T02:47:55.455Z,15.12
2017-09-25T02:50:23.771Z,15.10
2017-09-25T02:52:52.122Z,15.04
2017-09-25T02:55:21.204Z,15.09
2017-09-25T02:57:49.518Z,15.11
2017-09-25T03:00:17.842Z,15.11
2017-09-25T03:02:46.166Z,15.09
2017-09-25T03:05:15.283Z,15.13
2017-09-25T03:07:43.608Z,15.13
2017-09-25T03:10:11.922Z,15.16
2017-09-25T03:12:41.023Z,15.12
2017-09-25T03:15:09.333Z,15.10
2017-09-25T03:17:37.677Z,15.03
2017-09-25T03:20:06.004Z,15.00
2017-09-25T03:22:34.321Z,15.05
2017-09-25T03:25:03.414Z,15.10
2017-09-25T03:27:32.542Z,15.03
2017-09-25T03:30:00.921Z,15.00
2017-09-25T03:32:29.239Z,15.04
2017-09-25T03:34:57.562Z,14.95
2017-09-25T03:37:25.888Z,14.96
2017-09-25T03:39:54.197Z,14.97
2017-09-25T03:42:23.305Z,14.95
2017-09-25T03:44:51.621Z,14.98
2017-09-25T03:47:19.929Z,14.91
2017-09-25T03:49:48.258Z,14.88
2017-09-25T03:52:16.593Z,14.89
2017-09-25T03:54:44.957Z,14.85
2017-09-25T03:57:13.338Z,14.84
2017-09-25T03:59:41.653Z,14.81
2017-09-25T04:02:09.980Z,14.82
2017-09-25T04:04:38.295Z,14.72
2017-09-25T04:07:07.405Z,14.73
2017-09-25T04:09:35.723Z,14.82
2017-09-25T04:12:04.036Z,14.82
2017-09-25T04:14:33.130Z,14.80
2017-09-25T04:17:01.442Z,14.82
2017-09-25T04:19:29.798Z,14.83
2017-09-25T04:21:58.881Z,14.83
2017-09-25T04:24:27.986Z,14.83
2017-09-25T04:26:57.076Z,14.84
2017-09-25T04:29:26.166Z,14.75
2017-09-25T04:31:54.515Z,14.75
2017-09-25T04:34:22.829Z,14.72
2017-09-25T04:36:51.902Z,14.74
2017-09-25T04:39:20.222Z,14.78
2017-09-25T04:41:48.548Z,14.74
2017-09-25T04:44:16.913Z,14.70
2017-09-25T04:46:45.223Z,14.72
2017-09-25T04:49:13.543Z,14.73
2017-09-25T04:51:41.858Z,14.74
2017-09-25T04:54:10.170Z,14.72
2017-09-25T04:56:39.278Z,14.71
2017-09-25T04:59:07.593Z,14.77
2017-09-25T05:01:35.913Z,14.73
2017-09-25T05:04:05.049Z,14.82
2017-09-25T05:06:33.358Z,14.74
2017-09-25T05:09:01.706Z,14.79
2017-09-25T05:11:30.022Z,14.84
2017-09-25T05:13:58.330Z,14.84
2017-09-25T05:16:27.422Z,14.82
2017-09-25T05:18:56.549Z,14.87
2017-09-25T05:21:24.886Z,14.86
2017-09-25T05:23:53.216Z,14.82
2017-09-25T05:26:21.554Z,14.86
2017-09-25T05:28:50.665Z,14.93
2017-09-25T05:31:18.986Z,14.95
2017-09-25T05:33:47.326Z,14.93
2017-09-25T05:36:15.637Z,15.04
2017-09-25T05:38:43.942Z,14.95
2017-09-25T05:41:12.292Z,14.99
2017-09-25T05:43:40.638Z,14.91
2017-09-25T05:46:08.973Z,14.97
2017-09-25T05:48:37.281Z,15.00
2017-09-25T05:51:05.597Z,14.93
2017-09-25T05:53:34.682Z,14.90
2017-09-25T05:56:02.989Z,14.93
2017-09-25T05:58:31.349Z,15.03
2017-09-25T06:00:59.650Z,15.08
2017-09-25T06:03:27.954Z,15.06
2017-09-25T06:05:57.033Z,15.13
2017-09-25T06:08:25.342Z,15.19
2017-09-25T06:10:53.690Z,15.22
2017-09-25T06:13:22.004Z,15.21
2017-09-25T06:15:50.318Z,15.23
2017-09-25T06:18:18.633Z,15.33
2017-09-25T06:20:46.958Z,15.25
2017-09-25T06:23:15.309Z,15.31
2017-09-25T06:25:43.630Z,15.38
2017-09-25T06:28:11.943Z,15.51
2017-09-25T06:30:40.286Z,15.63
2017-09-25T06:33:08.599Z,15.65
2017-09-25T06:35:36.941Z,15.58
2017-09-25T06:38:05.252Z,15.66
2017-09-25T06:40:33.582Z,15.60
2017-09-25T06:43:01.907Z,15.52
2017-09-25T06:45:30.990Z,15.47
2017-09-25T06:47:59.346Z,15.42
2017-09-25T06:50:27.668Z,15.36
2017-09-25T06:52:55.985Z,15.25
2017-09-25T06:55:24.306Z,15.15
2017-09-25T06:57:53.397Z,15.28
2017-09-25T07:00:22.517Z,15.36
2017-09-25T07:02:50.829Z,15.49
2017-09-25T07:05:19.158Z,15.51
2017-09-25T07:07:48.253Z,15.51
2017-09-25T07:10:17.334Z,15.54
2017-09-25T07:12:45.754Z,15.78
2017-09-25T07:15:14.082Z,16.04
2017-09-25T07:17:42.395Z,16.16
2017-09-25T07:20:10.745Z,16.13
2017-09-25T07:22:39.055Z,16.05
2017-09-25T07:25:08.141Z,16.14
2017-09-25T07:27:37.228Z,16.08
2017-09-25T07:30:06.342Z,16.06
2017-09-25T07:32:34.662Z,16.07
2017-09-25T07:35:02.970Z,15.95
2017-09-25T07:37:32.062Z,16.28
2017-09-25T07:40:00.394Z,16.41
2017-09-25T07:42:28.714Z,16.40
2017-09-25T07:44:57.024Z,16.80
2017-09-25T07:47:25.366Z,16.92
2017-09-25T07:49:53.686Z,16.53
2017-09-25T07:52:22.006Z,16.38
2017-09-25T07:54:50.322Z,16.10
2017-09-25T07:57:19.402Z,16.11
2017-09-25T07:59:47.727Z,16.11
2017-09-25T08:02:16.033Z,15.97
2017-09-25T08:04:44.370Z,15.92
2017-09-25T08:07:12.678Z,15.70
2017-09-25T08:09:40.985Z,15.64
2017-09-25T08:12:09.302Z,15.59
2017-09-25T08:14:37.608Z,15.40
2017-09-25T08:17:05.922Z,15.48
2017-09-25T08:19:34.997Z,15.58
2017-09-25T08:22:03.347Z,15.54
2017-09-25T08:24:31.653Z,15.76
2017-09-25T08:26:59.960Z,15.92
2017-09-25T08:29:29.041Z,15.78
2017-09-25T08:31:58.125Z,15.67
2017-09-25T08:34:26.456Z,15.65
2017-09-25T08:36:54.814Z,15.79
2017-09-25T08:39:23.161Z,15.56
2017-09-25T08:41:51.474Z,15.56
2017-09-25T08:44:19.779Z,15.71
2017-09-25T08:46:48.098Z,15.53
2017-09-25T08:49:16.414Z,15.55
2017-09-25T08:51:44.733Z,15.62
2017-09-25T08:54:13.042Z,15.58
2017-09-25T08:56:42.168Z,15.53
2017-09-25T08:59:10.477Z,15.69
2017-09-25T09:01:38.798Z,16.04
2017-09-25T09:04:07.885Z,16.16
2017-09-25T09:06:36.958Z,16.69
2017-09-25T09:09:05.295Z,17.36
2017-09-25T09:11:33.612Z,18.02
2017-09-25T09:14:01.950Z,18.41
2017-09-25T09:16:30.271Z,18.69
2017-09-25T09:18:58.600Z,18.28
2017-09-25T09:21:26.944Z,18.29
2017-09-25T09:23:56.023Z,18.62
2017-09-25T09:26:24.377Z,18.35
2017-09-25T09:28:52.717Z,18.30
2017-09-25T09:31:21.028Z,18.02
2017-09-25T09:33:49.359Z,18.24
2017-09-25T09:36:18.442Z,18.45
2017-09-25T09:38:46.787Z,18.03
2017-09-25T09:41:15.116Z,18.46
2017-09-25T09:43:44.193Z,18.79
2017-09-25T09:46:12.518Z,18.90
2017-09-25T09:48:40.822Z,20.78
2017-09-25T09:51:09.162Z,20.37
2017-09-25T09:53:37.479Z,20.19
2017-09-25T09:56:05.781Z,20.46
2017-09-25T09:58:34.094Z,20.51
2017-09-25T10:01:02.402Z,20.06
2017-09-25T10:03:30.740Z,18.82
2017-09-25T10:05:59.051Z,18.48
2017-09-25T10:08:27.358Z,18.45
2017-09-25T10:10:55.686Z,18.22
2017-09-25T10:13:23.990Z,17.90
2017-09-25T10:15:52.310Z,17.89
2017-09-25T10:18:21.402Z,18.01
2017-09-25T10:20:50.511Z,18.31
2017-09-25T10:23:19.582Z,18.12
2017-09-25T10:25:47.894Z,18.22
2017-09-25T10:28:16.218Z,18.56
2017-09-25T10:30:44.538Z,18.50
2017-09-25T10:33:12.866Z,18.71
2017-09-25T10:35:41.197Z,18.44
2017-09-25T10:38:09.542Z,18.45
2017-09-25T10:40:37.858Z,18.34
2017-09-25T10:43:06.167Z,18.39
2017-09-25T10:45:34.519Z,18.68
2017-09-25T10:48:02.830Z,18.44
2017-09-25T10:50:31.157Z,18.74
2017-09-25T10:52:59.774Z,18.57
2017-09-25T10:55:28.086Z,18.73
2017-09-25T10:57:56.411Z,19.02
2017-09-25T11:00:24.722Z,18.54
2017-09-25T11:02:53.040Z,17.90
2017-09-25T11:05:22.114Z,17.36
2017-09-25T11:07:50.459Z,17.21
2017-09-25T11:10:18.758Z,17.00
2017-09-25T11:12:47.077Z,17.33
2017-09-25T11:15:16.165Z,17.50
2017-09-25T11:17:45.242Z,17.69
2017-09-25T11:20:13.562Z,18.09
2017-09-25T11:22:41.874Z,18.02
2017-09-25T11:25:10.219Z,18.35
2017-09-25T11:27:38.538Z,18.18
2017-09-25T11:30:06.855Z,18.73
2017-09-25T11:32:35.936Z,19.19
2017-09-25T11:35:05.009Z,19.21
2017-09-25T11:37:33.329Z,18.38
2017-09-25T11:40:01.637Z,18.11
2017-09-25T11:42:29.977Z,17.68
2017-09-25T11:44:59.057Z,17.46
2017-09-25T11:47:28.129Z,17.44
2017-09-25T11:49:56.461Z,17.35
2017-09-25T11:52:24.773Z,17.69
2017-09-25T11:54:53.101Z,17.27
2017-09-25T11:57:22.174Z,17.37
2017-09-25T11:59:50.518Z,17.43
2017-09-25T12:02:18.829Z,17.38
2017-09-25T12:04:47.141Z,17.23
2017-09-25T12:07:15.463Z,17.14
2017-09-25T12:09:43.777Z,17.25
2017-09-25T12:12:12.870Z,17.10
2017-09-25T12:14:41.951Z,17.27
2017-09-25T12:17:10.278Z,17.51
2017-09-25T12:19:38.591Z,17.73
2017-09-25T12:22:06.898Z,17.88
2017-09-25T12:24:35.990Z,17.62
2017-09-25T12:27:05.075Z,17.78
2017-09-25T12:29:33.398Z,17.49
2017-09-25T12:32:01.710Z,17.87
2017-09-25T12:34:30.062Z,18.68
2017-09-25T12:36:58.372Z,19.12
2017-09-25T12:39:26.677Z,19.81
2017-09-25T12:41:55.768Z,19.71
2017-09-25T12:44:24.849Z,19.17
2017-09-25T12:46:53.191Z,18.79
2017-09-25T12:49:21.514Z,18.33
2017-09-25T12:51:50.597Z,18.81
2017-09-25T12:54:18.925Z,18.72
2017-09-25T12:56:47.234Z,18.61
2017-09-25T12:59:15.589Z,18.73
2017-09-25T13:01:43.903Z,19.21
2017-09-25T13:04:12.230Z,19.67
2017-09-25T13:06:40.558Z,19.73
2017-09-25T13:09:08.890Z,19.50
2017-09-25T13:11:37.235Z,19.20
2017-09-25T13:14:06.311Z,18.90
2017-09-25T13:16:34.646Z,19.12
2017-09-25T13:19:02.953Z,19.40
2017-09-25T13:21:31.273Z,19.18
2017-09-25T13:23:59.597Z,18.88
2017-09-25T13:26:27.908Z,18.76
2017-09-25T13:28:57.003Z,18.73
2017-09-25T13:31:26.081Z,18.65
2017-09-25T13:33:54.422Z,18.35
2017-09-25T13:36:22.729Z,18.12
2017-09-25T13:38:51.038Z,18.21
2017-09-25T13:41:20.126Z,19.14
2017-09-25T13:43:49.202Z,20.17
2017-09-25T13:46:17.518Z,20.64
2017-09-25T13:48:46.596Z,19.43
2017-09-25T13:51:15.724Z,19.07
2017-09-25T13:53:44.110Z,18.61
2017-09-25T13:56:12.422Z,18.52
2017-09-25T14:03:47.862Z,19.78
2017-09-25T14:06:16.227Z,20.11
2017-09-25T14:08:44.607Z,20.22
2017-09-25T14:11:13.010Z,20.14
2017-09-25T14:13:41.414Z,19.75
2017-09-25T14:16:09.786Z,19.08
2017-09-25T14:18:38.149Z,18.56
2017-09-25T14:21:06.533Z,18.34
2017-09-25T14:23:34.902Z,18.31
2017-09-25T14:26:03.278Z,18.13
2017-09-25T14:28:31.649Z,18.09
2017-09-25T14:31:00.045Z,17.76
2017-09-25T14:33:28.414Z,17.72
2017-09-25T14:35:56.791Z,17.72
2017-09-25T14:38:25.182Z,17.74
2017-09-25T14:40:53.551Z,17.73
2017-09-25T14:43:21.944Z,17.85
2017-09-25T14:45:50.308Z,17.83
2017-09-25T14:48:18.732Z,17.89
2017-09-25T14:50:47.096Z,18.05
2017-09-25T14:53:15.458Z,18.11
2017-09-25T14:55:43.835Z,18.04
2017-09-25T14:58:12.234Z,18.09
2017-09-25T15:00:40.605Z,18.05
2017-09-25T15:03:08.966Z,17.98
2017-09-25T15:05:37.361Z,17.81
2017-09-25T15:08:05.723Z,17.75
2017-09-25T15:10:34.096Z,17.70
2017-09-25T15:13:02.469Z,17.62
2017-09-25T15:15:30.829Z,17.43
2017-09-25T15:17:59.201Z,17.41
2017-09-25T15:20:28.334Z,17.43
2017-09-25T15:22:56.725Z,17.47
2017-09-25T15:25:25.861Z,17.42
2017-09-25T15:27:54.989Z,17.31
2017-09-25T15:30:23.417Z,17.11
2017-09-25T15:32:51.826Z,16.90
2017-09-25T15:35:21.018Z,16.79
2017-09-25T15:37:50.157Z,16.72
2017-09-25T15:40:18.559Z,16.89
2017-09-25T15:42:46.919Z,16.87
2017-09-25T15:45:15.284Z,16.96
2017-09-25T15:47:43.664Z,16.96
2017-09-25T15:50:12.029Z,16.94
2017-09-25T15:52:40.397Z,16.88
2017-09-25T15:55:09.523Z,16.84
2017-09-25T15:57:37.927Z,16.86
2017-09-25T16:00:06.318Z,16.76
2017-09-25T16:02:34.678Z,16.87
2017-09-25T16:05:03.082Z,16.82
2017-09-25T16:07:31.449Z,16.93
2017-09-25T16:09:59.827Z,16.84
2017-09-25T16:12:28.196Z,16.49
2017-09-25T16:14:56.593Z,16.42
2017-09-25T16:17:24.956Z,16.43
2017-09-25T16:19:53.321Z,16.35
2017-09-25T16:22:21.692Z,16.31
2017-09-25T16:24:50.057Z,16.12
2017-09-25T16:27:18.434Z,16.10
2017-09-25T16:29:46.801Z,16.02
2017-09-25T16:32:15.203Z,15.87
2017-09-25T16:34:43.574Z,15.91
2017-09-25T16:37:11.938Z,15.89
2017-09-25T16:39:40.317Z,15.78
2017-09-25T16:42:08.685Z,15.71
2017-09-25T16:44:37.825Z,15.63
2017-09-25T16:47:06.185Z,15.68
2017-09-25T16:49:34.586Z,15.64
2017-09-25T16:52:02.952Z,15.74
2017-09-25T16:54:31.321Z,15.66
2017-09-25T16:56:59.690Z,15.70
2017-09-25T16:59:28.062Z,15.62
2017-09-25T17:01:56.455Z,15.55
2017-09-25T17:04:24.821Z,15.56
2017-09-25T17:06:53.205Z,15.59
2017-09-25T17:09:22.334Z,15.48
2017-09-25T17:11:50.702Z,15.36
2017-09-25T17:14:19.086Z,15.42
2017-09-25T17:16:47.442Z,15.43
2017-09-25T17:19:15.825Z,15.42
2017-09-25T17:21:44.190Z,15.42
2017-09-25T17:24:12.586Z,15.39
2017-09-25T17:26:41.790Z,15.30
2017-09-25T17:29:10.168Z,15.28
2017-09-25T17:31:38.551Z,15.24
2017-09-25T17:34:06.910Z,15.12
2017-09-25T17:36:35.281Z,15.18
2017-09-25T17:39:03.649Z,15.20
2017-09-25T17:41:32.818Z,15.20
2017-09-25T17:44:01.185Z,15.12
2017-09-25T17:46:29.550Z,15.15
2017-09-25T17:48:57.926Z,15.02
2017-09-25T17:51:27.062Z,15.04
2017-09-25T17:53:55.458Z,14.92
2017-09-25T17:56:24.595Z,14.94
2017-09-25T17:58:52.994Z,14.92
2017-09-25T18:01:21.357Z,14.92
2017-09-25T18:03:49.736Z,14.90
2017-09-25T18:06:18.119Z,14.93
2017-09-25T18:08:46.486Z,14.94
2017-09-25T18:11:14.863Z,14.89
2017-09-25T18:13:43.223Z,14.90
2017-09-25T18:16:11.621Z,14.91
2017-09-25T18:18:40.002Z,14.88
2017-09-25T18:21:08.361Z,14.90
2017-09-25T18:23:36.729Z,14.89
2017-09-25T18:26:05.097Z,14.90
2017-09-25T18:28:33.493Z,14.89
2017-09-25T18:31:01.861Z,14.90
2017-09-25T18:33:30.286Z,14.86
2017-09-25T18:35:58.651Z,14.88
2017-09-25T18:38:27.017Z,14.82
2017-09-25T18:40:55.389Z,14.78
2017-09-25T18:43:23.749Z,14.77
2017-09-25T18:45:52.921Z,14.82
2017-09-25T18:48:21.286Z,14.75
2017-09-25T18:50:49.689Z,14.78
2017-09-25T18:53:18.824Z,14.76
2017-09-25T18:55:47.197Z,14.73
2017-09-25T18:58:15.583Z,14.68
2017-09-25T19:00:43.954Z,14.72
2017-09-25T19:03:12.339Z,14.72
2017-09-25T19:05:40.696Z,14.69
2017-09-25T19:08:09.860Z,14.72
2017-09-25T19:10:38.227Z,14.75
2017-09-25T19:13:07.397Z,14.76
2017-09-25T19:15:35.801Z,14.78
2017-09-25T19:18:04.166Z,14.76
2017-09-25T19:20:32.563Z,14.78
2017-09-25T19:23:00.933Z,14.72
2017-09-25T19:25:29.326Z,14.69
2017-09-25T19:27:57.704Z,14.76
2017-09-25T19:30:26.569Z,14.77
2017-09-25T19:32:54.955Z,14.79
2017-09-25T19:35:23.331Z,14.83
2017-09-25T19:37:51.700Z,14.86
2017-09-25T19:40:20.082Z,14.85
2017-09-25T19:42:48.483Z,14.78
2017-09-25T19:45:16.840Z,14.67
2017-09-25T19:47:47.557Z,14.67
2017-09-25T19:50:22.253Z,14.68
2017-09-25T19:52:51.420Z,14.63
2017-09-25T19:55:20.758Z,14.60
2017-09-25T19:57:52.090Z,14.59
2017-09-25T20:00:20.485Z,14.62
2017-09-25T20:02:48.892Z,14.59
2017-09-25T20:05:17.289Z,14.55
2017-09-25T20:07:45.683Z,14.56
2017-09-25T20:10:14.054Z,14.59
2017-09-25T20:12:42.437Z,14.50
2017-09-25T20:15:12.077Z,14.49
2017-09-25T20:17:56.874Z,14.51
2017-09-25T20:20:25.247Z,14.52
2017-09-25T20:22:53.639Z,14.48
2017-09-25T20:25:22.014Z,14.43
2017-09-25T20:27:50.391Z,14.41
2017-09-25T20:30:18.772Z,14.41
2017-09-25T20:32:47.200Z,14.38
2017-09-25T20:35:15.583Z,14.35
2017-09-25T20:37:43.958Z,14.37
2017-09-25T20:40:12.335Z,14.38
2017-09-25T20:42:44.565Z,14.39
2017-09-25T20:45:12.952Z,14.43
2017-09-25T20:47:41.325Z,14.36
2017-09-25T20:50:09.695Z,14.35
2017-09-25T20:52:38.063Z,14.31
2017-09-25T20:55:06.467Z,14.30
2017-09-25T20:57:34.843Z,14.24
2017-09-25T21:00:03.222Z,14.15
2017-09-25T21:02:31.604Z,14.11
2017-09-25T21:04:59.986Z,14.08
2017-09-25T21:07:28.370Z,14.06
2017-09-25T21:09:56.739Z,14.08
2017-09-25T21:12:25.130Z,14.04
2017-09-25T21:14:53.494Z,13.98
2017-09-25T21:17:21.857Z,13.98
2017-09-25T21:19:50.240Z,13.94
2017-09-25T21:22:18.605Z,13.97
2017-09-25T21:24:46.984Z,13.95
2017-09-25T21:27:15.350Z,13.96
2017-09-25T21:29:44.499Z,13.93
2017-09-25T21:32:12.863Z,13.93
2017-09-25T21:34:41.253Z,13.93
2017-09-25T21:37:09.627Z,13.93
2017-09-25T21:39:37.994Z,13.96
2017-09-25T21:42:06.375Z,14.00
2017-09-25T21:44:34.741Z,13.96
2017-09-25T21:47:03.118Z,13.98
2017-09-25T21:49:31.489Z,13.99
2017-09-25T21:51:59.897Z,14.00
2017-09-25T21:54:28.273Z,14.00
2017-09-25T21:56:56.634Z,14.04
2017-09-25T21:59:25.029Z,14.00
2017-09-25T22:01:53.403Z,13.99
2017-09-25T22:04:21.777Z,14.03
2017-09-25T22:06:50.142Z,13.97
2017-09-25T22:09:18.547Z,13.95
2017-09-25T22:11:46.922Z,13.96
2017-09-25T22:14:15.289Z,13.94
2017-09-25T22:16:43.662Z,13.91
2017-09-25T22:19:12.045Z,13.93
2017-09-25T22:21:40.414Z,13.92
2017-09-25T22:24:08.779Z,13.96
2017-09-25T22:26:37.942Z,14.00
2017-09-25T22:29:06.309Z,13.91
2017-09-25T22:31:34.677Z,14.01
2017-09-25T22:34:03.060Z,14.04
2017-09-25T22:36:31.425Z,13.98
2017-09-25T22:38:59.795Z,13.97
2017-09-25T22:41:28.157Z,14.02
2017-09-25T22:44:06.461Z,14.02
2017-09-25T22:46:35.595Z,14.04
2017-09-25T22:49:03.969Z,14.07
2017-09-25T22:51:32.332Z,14.13
2017-09-25T22:54:00.698Z,14.14
2017-09-25T22:56:29.925Z,14.22
2017-09-25T22:58:58.289Z,14.21
2017-09-25T23:01:26.690Z,14.18
2017-09-25T23:03:58.723Z,14.22
2017-09-25T23:06:27.132Z,14.23
2017-09-25T23:08:55.493Z,14.22
2017-09-25T23:11:23.886Z,14.28
2017-09-25T23:13:52.257Z,14.25
2017-09-25T23:16:20.621Z,14.29
2017-09-25T23:18:49.005Z,14.34
2017-09-25T23:21:17.371Z,14.35
2017-09-25T23:23:45.778Z,14.37
2017-09-25T23:26:14.151Z,14.41
2017-09-25T23:28:42.517Z,14.34
2017-09-25T23:31:10.885Z,14.35
2017-09-25T23:33:39.285Z,14.42
2017-09-25T23:36:07.666Z,14.39
2017-09-25T23:38:36.035Z,14.38
2017-09-25T23:41:04.531Z,14.30
2017-09-25T23:43:32.897Z,14.31
2017-09-25T23:46:01.256Z,14.42
2017-09-25T23:48:30.393Z,14.44
2017-09-25T23:50:58.753Z,14.53
2017-09-25T23:53:27.123Z,14.47
2017-09-25T23:55:55.481Z,14.40
2017-09-25T23:58:24.641Z,14.33
